Página principal
METAR-TAF:

METAR-TAF

Aeroportos :

Lançarote, Espanha

latitude: 28-57N, longitude: 013-36W, altura: 14 m

Observação actual do tempo

O boletim foi feito há 29 minutos, às 23:30 UTC
Vento 13 kt de norte
Temperatura 18°C
Humidade 64%
Pressão 1017 hPa
Visibilidade 10 km ou mais
Poucas nuvensa uma altura de 2000 ft

METAR: GCRR 152330Z 01013KT 9999 FEW020 18/11 Q1017

Hora: 23:59 (23:59 UTC)

Previsão

O boletim foi feito há 3 horas e 59 minutos, às 20:00 UTC
Previsão válida de 15 às 21 UTC a 16 às 21 UTC
Vento 16 kt de norte
Visibilidade 10 km ou mais
Nuvens dispersasa uma altura de 4000 ft

TAF: GCRR 152000Z 1521/1621 01016KT 9999 SCT040 TX23/1614Z TN16/1606Z

Observações e previsões do tempo de mais de 4000 aeroportos (mensagens METAR e TAF).

As estações disponíveis são os pontos amarelos e vermelhos sobre o mapa.

Mova o rato sobre o mapa para ver o nome da estação.

Depois clique no ponto para visualizar as observações e previsões meteorológicas.

Para alterar o mapa : clique nos botões verdes com uma cruz preta para aumentar o zoom; no botão verde com uma pitada de zoom; ou nas setas verdes para mapas adjacentes.


METAR-TAF: